Time;durP1;ratioP1;P1;durP2;ratioP2;P2;SDS_P1;SDS_P2;PMS_P1;PMS_P2;Temp;Humidity;BMP_temperature;BMP_pressure;BME280_temperature;BME280_humidity;BME280_pressure;Samples;Min_cycle;Max_cycle;Signal;HPM_P1;HPM_P2
2022/01/30 00:01:43;;;;;;;15.57;3.90;;;7.40;99.90;;;;;;4985901;28;20057;-91
2022/01/30 00:04:09;;;;;;;16.85;3.50;;;7.40;99.90;;;;;;4971092;28;20089;-90
2022/01/30 00:06:34;;;;;;;14.70;3.90;;;7.40;99.90;;;;;;4971596;28;20050;-93
2022/01/30 00:09:00;;;;;;;20.58;4.57;;;7.40;99.90;;;;;;4982682;28;20459;-88
2022/01/30 00:11:31;;;;;;;20.27;4.35;;;7.50;99.90;;;;;;4989621;28;20457;-88
2022/01/30 00:13:58;;;;;;;;;;;7.40;99.90;;;;;;4991069;28;20093;-88
2022/01/30 00:16:25;;;;;;;14.65;3.20;;;7.40;99.90;;;;;;4988406;28;20085;-89
2022/01/30 00:24:01;;;;;;;;;;;7.40;99.90;;;;;;5004886;28;20088;-88
2022/01/30 00:26:30;;;;;;;19.98;3.90;;;7.30;99.90;;;;;;5019801;28;19936;-88
2022/01/30 00:28:57;;;;;;;19.92;4.85;;;7.30;99.90;;;;;;5002379;28;20045;-90
2022/01/30 00:31:24;;;;;;;16.08;3.20;;;7.40;99.90;;;;;;5006124;28;20046;-89
2022/01/30 00:33:50;;;;;;;19.08;4.40;;;7.40;99.90;;;;;;5005487;28;20397;-90
2022/01/30 00:36:16;;;;;;;21.73;4.20;;;7.40;99.90;;;;;;5004399;28;20168;-90
2022/01/30 00:38:42;;;;;;;18.17;3.45;;;7.40;99.90;;;;;;5004380;28;20327;-91
2022/01/30 00:41:08;;;;;;;18.08;3.78;;;7.20;99.90;;;;;;5001792;28;20120;-92
2022/01/30 00:43:33;;;;;;;16.08;3.75;;;7.30;99.90;;;;;;5004696;28;20486;-88
2022/01/30 00:45:59;;;;;;;20.45;4.28;;;7.30;99.90;;;;;;5004579;28;20124;-94
2022/01/30 00:48:24;;;;;;;17.27;3.80;;;7.20;99.90;;;;;;5002239;28;20121;-87
2022/01/30 00:50:50;;;;;;;19.65;4.38;;;7.10;99.90;;;;;;5003765;28;20487;-88
2022/01/30 00:53:16;;;;;;;18.17;3.97;;;7.10;99.90;;;;;;5000246;28;20448;-87
2022/01/30 00:55:41;;;;;;;18.05;3.53;;;7.10;99.90;;;;;;5002445;28;20056;-87
2022/01/30 00:58:07;;;;;;;16.85;3.30;;;7.10;99.90;;;;;;5004251;28;20759;-90
2022/01/30 01:00:34;;;;;;;18.60;3.97;;;7.10;99.90;;;;;;5000259;28;20384;-90
2022/01/30 01:03:00;;;;;;;16.48;3.70;;;7.10;99.90;;;;;;5004327;28;20111;-88
2022/01/30 01:05:27;;;;;;;17.25;3.72;;;7.00;99.90;;;;;;4989098;28;20056;-88
2022/01/30 01:07:55;;;;;;;20.65;3.78;;;6.80;99.90;;;;;;5002739;28;20048;-90
2022/01/30 01:10:34;;;;;;;15.63;2.60;;;6.60;99.90;;;;;;5004495;28;20053;-90
2022/01/30 01:13:54;;;;;;;12.88;2.58;;;6.40;99.90;;;;;;5002105;28;20046;-90
2022/01/30 01:24:00;;;;;;;17.02;3.13;;;6.00;99.90;;;;;;5000558;28;20583;-88
2022/01/30 01:26:26;;;;;;;16.70;3.20;;;5.90;99.90;;;;;;5004398;28;20050;-89
2022/01/30 01:28:53;;;;;;;16.85;3.95;;;5.90;99.90;;;;;;5000885;28;20103;-90
2022/01/30 01:31:19;;;;;;;17.30;3.88;;;5.90;99.90;;;;;;4999705;28;20045;-90
2022/01/30 01:34:19;;;;;;;22.95;4.88;;;5.90;99.90;;;;;;4987701;28;20048;-90
2022/01/30 01:36:31;;;;;;;16.98;3.38;;;5.90;99.90;;;;;;5003392;28;20052;-91
2022/01/30 01:38:56;;;;;;;18.90;3.45;;;5.90;99.90;;;;;;5005038;28;20124;-93
2022/01/30 01:41:24;;;;;;;21.48;3.95;;;6.00;99.90;;;;;;5004080;28;20824;-88
2022/01/30 01:43:50;;;;;;;18.75;3.67;;;6.00;99.90;;;;;;5000747;28;20046;-90
2022/01/30 01:46:22;;;;;;;19.73;3.58;;;6.00;99.90;;;;;;5002972;28;20046;-91
2022/01/30 01:48:50;;;;;;;17.50;3.88;;;6.00;99.90;;;;;;5021644;28;20056;-94
2022/01/30 01:51:21;;;;;;;20.80;3.20;;;6.00;99.90;;;;;;4987258;28;20080;-90
2022/01/30 01:53:49;;;;;;;18.25;2.85;;;6.00;99.90;;;;;;5006991;28;20220;-91
2022/01/30 01:56:16;;;;;;;17.85;4.18;;;6.00;99.90;;;;;;5002412;28;20048;-88
2022/01/30 01:58:43;;;;;;;16.17;3.40;;;6.10;99.90;;;;;;5002414;28;20140;-89
2022/01/30 02:01:09;;;;;;;20.52;3.47;;;6.10;99.90;;;;;;5003897;28;20405;-88
2022/01/30 02:03:37;;;;;;;18.33;4.80;;;6.10;99.90;;;;;;5002912;28;20033;-89
2022/01/30 02:06:04;;;;;;;17.35;3.17;;;6.10;99.90;;;;;;5001179;28;20054;-90
2022/01/30 02:11:08;;;;;;;18.00;3.42;;;6.20;99.90;;;;;;5002793;28;20050;-90
2022/01/30 02:27:03;;;;;;;20.40;3.63;;;6.20;99.90;;;;;;5024281;28;20049;-91
2022/01/30 02:29:29;;;;;;;18.50;3.25;;;6.20;99.90;;;;;;5006011;28;20046;-88
2022/01/30 02:31:58;;;;;;;21.27;3.92;;;6.20;99.90;;;;;;5007493;28;20679;-89
2022/01/30 02:34:28;;;;;;;19.92;3.58;;;6.20;99.90;;;;;;5005673;28;20050;-86
2022/01/30 02:36:55;;;;;;;20.42;4.53;;;6.20;99.90;;;;;;5007247;28;20053;-90
2022/01/30 02:39:21;;;;;;;17.38;4.05;;;6.20;99.90;;;;;;5005874;28;20402;-89
2022/01/30 02:41:48;;;;;;;23.17;4.60;;;6.30;99.90;;;;;;5005210;28;20042;-85
2022/01/30 02:46:45;;;;;;;20.20;4.15;;;6.40;99.90;;;;;;5007473;28;20049;-88
2022/01/30 02:51:51;;;;;;;18.67;4.10;;;6.40;99.90;;;;;;5007955;28;20053;-90
2022/01/30 02:54:18;;;;;;;21.15;4.32;;;6.50;99.90;;;;;;5009166;28;20065;-88
2022/01/30 02:56:43;;;;;;;19.88;4.63;;;6.50;99.90;;;;;;5008482;28;20045;-88
2022/01/30 02:59:10;;;;;;;19.48;4.28;;;6.50;99.90;;;;;;5009438;28;20049;-88
2022/01/30 03:01:36;;;;;;;17.70;4.32;;;6.60;99.90;;;;;;5026495;28;20045;-90
2022/01/30 03:04:02;;;;;;;19.38;4.95;;;6.60;99.90;;;;;;5023759;28;20076;-87
2022/01/30 03:06:27;;;;;;;19.30;4.53;;;6.60;99.90;;;;;;5010705;28;20050;-91
2022/01/30 03:08:53;;;;;;;20.25;4.20;;;6.60;99.90;;;;;;5006517;28;20053;-88
2022/01/30 03:11:19;;;;;;;16.10;3.90;;;6.60;99.90;;;;;;5004773;28;20565;-87
2022/01/30 03:13:45;;;;;;;23.05;4.63;;;6.60;99.90;;;;;;4983983;28;20083;-91
2022/01/30 03:16:11;;;;;;;21.35;3.75;;;6.60;99.90;;;;;;4989479;28;20049;-87
2022/01/30 03:18:37;;;;;;;23.35;4.70;;;6.60;99.90;;;;;;5022119;28;20034;-86
2022/01/30 03:21:03;;;;;;;20.90;4.88;;;6.50;99.90;;;;;;4986717;28;20088;-86
2022/01/30 03:23:30;;;;;;;21.30;4.50;;;6.50;99.90;;;;;;4990414;28;20042;-89
2022/01/30 03:25:58;;;;;;;16.88;3.80;;;6.40;99.90;;;;;;4966082;28;20046;-88
2022/01/30 03:28:25;;;;;;;22.45;4.13;;;6.40;99.90;;;;;;4983847;28;20578;-89
2022/01/30 03:30:55;;;;;;;20.48;3.80;;;6.40;99.90;;;;;;4987052;28;20108;-92
2022/01/30 03:33:21;;;;;;;18.33;4.05;;;6.40;99.90;;;;;;4986341;28;20078;-90
2022/01/30 03:35:46;;;;;;;21.98;4.35;;;6.40;99.90;;;;;;4990069;28;20073;-88
2022/01/30 03:38:12;;;;;;;18.42;3.85;;;6.50;99.90;;;;;;4970828;28;20042;-90
2022/01/30 03:40:38;;;;;;;22.25;4.07;;;6.50;99.90;;;;;;4993128;28;20050;-88
2022/01/30 03:43:04;;;;;;;21.15;4.68;;;6.50;99.90;;;;;;4994932;28;20399;-89
2022/01/30 03:45:29;;;;;;;23.20;4.60;;;6.40;99.90;;;;;;4987894;28;20403;-89
2022/01/30 03:47:55;;;;;;;22.20;4.25;;;6.40;99.90;;;;;;4996111;28;20205;-89
2022/01/30 03:50:22;;;;;;;20.15;4.50;;;6.30;99.90;;;;;;4992354;28;20143;-87
2022/01/30 03:52:48;;;;;;;23.60;5.50;;;6.30;99.90;;;;;;4974997;28;20099;-89
2022/01/30 03:55:13;;;;;;;22.35;4.72;;;6.30;99.90;;;;;;4985132;28;20453;-86
2022/01/30 03:57:39;;;;;;;24.60;4.95;;;6.30;99.90;;;;;;4971022;28;20041;-87
2022/01/30 04:00:06;;;;;;;23.85;5.18;;;6.30;99.90;;;;;;4986714;28;20177;-88
2022/01/30 04:02:32;;;;;;;22.27;4.40;;;6.40;99.90;;;;;;4993169;28;20046;-86
2022/01/30 04:04:57;;;;;;;26.88;6.05;;;6.40;99.90;;;;;;4989860;28;20034;-90
2022/01/30 04:07:24;;;;;;;26.58;6.25;;;6.40;99.90;;;;;;4972842;28;20042;-90
2022/01/30 04:09:50;;;;;;;21.20;4.70;;;6.50;99.90;;;;;;4989309;28;20042;-90
2022/01/30 04:12:16;;;;;;;26.90;5.20;;;6.50;99.90;;;;;;4985528;28;20054;-87
2022/01/30 04:14:42;;;;;;;23.13;5.28;;;6.50;99.90;;;;;;4987299;28;20042;-88
2022/01/30 04:17:13;;;;;;;23.50;6.10;;;6.50;99.90;;;;;;4990958;28;20391;-86
2022/01/30 04:19:39;;;;;;;23.73;5.47;;;6.50;99.90;;;;;;4991565;28;20066;-87
2022/01/30 04:22:04;;;;;;;24.73;5.55;;;6.50;99.90;;;;;;5011641;28;20155;-90
2022/01/30 04:24:30;;;;;;;32.17;5.35;;;6.50;99.90;;;;;;5025737;28;20041;-87
2022/01/30 04:26:56;;;;;;;29.63;6.38;;;6.50;99.90;;;;;;5026042;28;20049;-91
2022/01/30 04:29:22;;;;;;;25.67;6.38;;;6.50;99.90;;;;;;5004831;28;20041;-89
2022/01/30 04:31:49;;;;;;;33.28;6.80;;;6.50;99.90;;;;;;5002649;28;20406;-86
2022/01/30 04:34:15;;;;;;;25.52;5.97;;;6.50;99.90;;;;;;5026107;28;20677;-88
2022/01/30 04:36:55;;;;;;;27.23;5.90;;;6.50;99.90;;;;;;5008138;28;20037;-87
2022/01/30 04:58:26;;;;;;;19.75;5.15;;;5.80;99.90;;;;;;4934573;28;20539;-90
2022/01/30 05:08:20;;;;;;;21.67;4.78;;;5.50;99.90;;;;;;4932485;29;20051;-88
2022/01/30 05:10:46;;;;;;;22.65;5.07;;;5.40;99.90;;;;;;4928859;28;20443;-88
2022/01/30 05:13:16;;;;;;;25.92;5.68;;;5.50;99.90;;;;;;4932955;28;20055;-88
2022/01/30 05:15:43;;;;;;;29.48;5.72;;;5.60;99.90;;;;;;4939109;28;20138;-89
2022/01/30 05:18:10;;;;;;;35.50;7.93;;;5.60;99.90;;;;;;4943631;28;20035;-87
2022/01/30 05:20:37;;;;;;;31.33;6.22;;;5.60;99.90;;;;;;5003832;28;20073;-89
2022/01/30 05:23:03;;;;;;;31.67;6.82;;;5.50;99.90;;;;;;5002899;28;20052;-89
2022/01/30 05:25:28;;;;;;;27.17;6.07;;;5.50;99.90;;;;;;4988614;28;20498;-93
2022/01/30 05:27:54;;;;;;;34.92;8.30;;;5.40;99.90;;;;;;4985906;28;20132;-91
2022/01/30 05:30:20;;;;;;;34.67;7.32;;;5.40;99.90;;;;;;5024597;28;20040;-89
2022/01/30 05:32:46;;;;;;;27.00;6.35;;;5.40;99.90;;;;;;5002343;28;20048;-89
2022/01/30 05:35:12;;;;;;;30.23;7.00;;;5.40;99.90;;;;;;5004069;28;20045;-89
2022/01/30 05:37:39;;;;;;;29.25;7.50;;;5.50;99.90;;;;;;4991367;28;20119;-94
2022/01/30 05:40:06;;;;;;;30.40;6.47;;;5.50;99.90;;;;;;5010676;28;20038;-91
2022/01/30 05:42:31;;;;;;;31.73;7.47;;;5.60;99.90;;;;;;5010274;28;20072;-92
2022/01/30 05:45:12;;;;;;;32.92;5.72;;;5.60;99.90;;;;;;4991090;28;20034;-91
2022/01/30 05:47:43;;;;;;;34.90;6.82;;;5.60;99.90;;;;;;4993100;28;20048;-90
2022/01/30 05:50:10;;;;;;;40.90;16.95;;;5.60;99.90;;;;;;4989482;28;20034;-90
2022/01/30 05:52:36;;;;;;;34.03;6.43;;;5.60;99.90;;;;;;5014087;28;20691;-90
2022/01/30 05:55:03;;;;;;;36.80;8.98;;;5.50;99.90;;;;;;5009013;28;20577;-93
2022/01/30 05:57:28;;;;;;;31.38;6.35;;;5.50;99.90;;;;;;4991156;28;20041;-89
2022/01/30 05:59:54;;;;;;;28.67;6.93;;;5.50;99.90;;;;;;5009658;28;20505;-91
2022/01/30 06:02:20;;;;;;;31.25;7.10;;;5.50;99.90;;;;;;5010023;28;20421;-90
2022/01/30 06:04:46;;;;;;;30.65;6.75;;;5.50;99.90;;;;;;5008931;28;20044;-89
2022/01/30 06:07:12;;;;;;;29.38;7.03;;;5.50;99.90;;;;;;5006746;28;20045;-89
2022/01/30 06:09:38;;;;;;;32.90;6.03;;;5.50;99.90;;;;;;5008295;28;20107;-91
2022/01/30 06:12:04;;;;;;;32.15;6.22;;;5.50;99.90;;;;;;5007846;28;20038;-90
2022/01/30 06:14:30;;;;;;;32.47;6.63;;;5.60;99.90;;;;;;5013671;28;20067;-90
2022/01/30 06:16:56;;;;;;;35.53;6.82;;;5.50;99.90;;;;;;5025223;28;20132;-90
2022/01/30 06:19:22;;;;;;;24.33;6.03;;;5.50;99.90;;;;;;4993586;28;20113;-91
2022/01/30 06:21:51;;;;;;;35.78;6.55;;;5.60;99.90;;;;;;4996489;28;20114;-92
2022/01/30 06:24:16;;;;;;;30.77;6.72;;;5.60;99.90;;;;;;4992974;28;20803;-91
2022/01/30 06:26:42;;;;;;;29.83;7.40;;;5.60;99.90;;;;;;4993839;28;20149;-89
2022/01/30 06:29:07;;;;;;;33.35;5.85;;;5.60;99.90;;;;;;4987539;28;20031;-91
2022/01/30 06:31:33;;;;;;;25.77;5.63;;;5.60;99.90;;;;;;4978731;28;20054;-89
2022/01/30 06:33:59;;;;;;;31.15;7.28;;;5.60;99.90;;;;;;4986696;28;20068;-89
2022/01/30 06:36:24;;;;;;;33.10;6.18;;;5.60;99.90;;;;;;4992461;28;20039;-91
2022/01/30 06:38:52;;;;;;;36.80;7.57;;;5.70;99.90;;;;;;4987120;28;20446;-90
2022/01/30 06:41:18;;;;;;;33.38;7.55;;;5.70;99.90;;;;;;4990834;28;20466;-89
2022/01/30 06:43:44;;;;;;;33.03;6.68;;;5.70;99.90;;;;;;4995729;28;20085;-90
2022/01/30 06:46:11;;;;;;;29.48;6.80;;;5.70;99.90;;;;;;4992555;28;20058;-90
2022/01/30 06:48:37;;;;;;;29.83;6.28;;;5.80;99.90;;;;;;4991253;28;20042;-93
2022/01/30 06:51:05;;;;;;;30.88;8.18;;;5.80;99.90;;;;;;4978296;28;20052;-92
2022/01/30 06:53:31;;;;;;;27.15;6.47;;;5.90;99.90;;;;;;4988706;28;20037;-92
2022/01/30 06:55:56;;;;;;;26.83;5.40;;;5.90;99.90;;;;;;4993076;28;20148;-91
2022/01/30 06:58:22;;;;;;;31.08;7.35;;;5.90;99.90;;;;;;5007484;28;20031;-92
2022/01/30 07:00:48;;;;;;;30.33;6.28;;;5.90;99.90;;;;;;4985692;28;20519;-90
2022/01/30 07:03:14;;;;;;;29.02;5.72;;;5.90;99.90;;;;;;5009511;28;20038;-90
2022/01/30 07:05:39;;;;;;;22.70;6.68;;;5.90;99.90;;;;;;4999068;28;20038;-91
2022/01/30 07:08:05;;;;;;;34.80;6.18;;;6.00;99.90;;;;;;4975392;28;20569;-90
2022/01/30 07:10:30;;;;;;;29.33;7.05;;;6.00;99.90;;;;;;4993450;28;20122;-93
2022/01/30 07:12:56;;;;;;;29.27;6.88;;;6.00;99.90;;;;;;4975612;28;20060;-91
2022/01/30 07:15:22;;;;;;;27.52;6.38;;;6.10;99.90;;;;;;4994706;28;20402;-91
2022/01/30 07:17:48;;;;;;;28.13;6.30;;;6.00;99.90;;;;;;4974197;28;20453;-92
2022/01/30 07:20:13;;;;;;;30.92;6.70;;;6.00;99.90;;;;;;4992566;28;20065;-90
2022/01/30 07:22:39;;;;;;;29.55;7.47;;;6.00;99.90;;;;;;5008458;28;20459;-91
2022/01/30 07:25:06;;;;;;;31.17;6.30;;;6.10;99.90;;;;;;5006581;28;20077;-89
2022/01/30 07:27:32;;;;;;;31.25;7.25;;;6.10;99.90;;;;;;5008035;28;20455;-92
2022/01/30 07:29:57;;;;;;;29.80;7.18;;;6.10;99.90;;;;;;5004031;28;20433;-90
2022/01/30 07:32:23;;;;;;;32.10;6.38;;;6.10;99.90;;;;;;5024494;28;20064;-93
2022/01/30 07:34:52;;;;;;;27.00;5.65;;;6.20;99.90;;;;;;5003481;28;20037;-88
2022/01/30 07:37:18;;;;;;;29.83;6.35;;;6.20;99.90;;;;;;4990066;28;20038;-92
2022/01/30 07:39:45;;;;;;;30.48;6.50;;;6.20;99.90;;;;;;4985523;28;20050;-92
2022/01/30 07:42:11;;;;;;;28.38;6.88;;;6.20;99.90;;;;;;5012360;28;20129;-90
2022/01/30 07:44:36;;;;;;;33.53;7.63;;;6.30;99.90;;;;;;5003052;28;20050;-93
2022/01/30 07:47:03;;;;;;;29.35;7.18;;;6.20;99.90;;;;;;4986663;28;20536;-91
2022/01/30 07:49:28;;;;;;;31.45;7.15;;;6.30;99.90;;;;;;4986096;28;20067;-90
2022/01/30 07:51:54;;;;;;;27.27;6.40;;;6.30;99.90;;;;;;4986692;28;20037;-90
2022/01/30 07:54:20;;;;;;;31.95;7.65;;;6.30;99.90;;;;;;4988940;28;20046;-91
2022/01/30 07:56:46;;;;;;;30.50;6.70;;;6.30;99.90;;;;;;5000469;28;20057;-90
2022/01/30 07:59:11;;;;;;;29.63;6.90;;;6.30;99.90;;;;;;4988660;28;20042;-89
2022/01/30 08:01:37;;;;;;;32.20;7.15;;;6.30;99.90;;;;;;5003527;28;20088;-91
2022/01/30 08:04:06;;;;;;;33.60;6.80;;;6.40;99.90;;;;;;5003781;28;20038;-91
2022/01/30 08:06:31;;;;;;;31.20;8.10;;;6.40;99.90;;;;;;5007971;28;20075;-91
2022/01/30 08:08:57;;;;;;;32.13;8.82;;;6.40;99.90;;;;;;5004191;28;20053;-89
2022/01/30 08:11:22;;;;;;;29.63;7.95;;;6.40;99.90;;;;;;4989392;28;20491;-90
2022/01/30 08:13:48;;;;;;;35.47;8.45;;;6.40;99.90;;;;;;4989647;28;20030;-93
2022/01/30 08:16:14;;;;;;;30.02;8.52;;;6.40;99.90;;;;;;5008709;28;20050;-90
2022/01/30 08:18:39;;;;;;;29.95;6.90;;;6.40;99.90;;;;;;5005496;28;20038;-91
2022/01/30 08:21:05;;;;;;;35.28;7.35;;;6.40;99.90;;;;;;4999785;28;20062;-92
2022/01/30 08:23:33;;;;;;;37.15;5.95;;;6.40;99.90;;;;;;4991715;28;20091;-88
2022/01/30 08:25:59;;;;;;;33.58;7.43;;;6.40;99.90;;;;;;4999311;28;20043;-89
2022/01/30 08:28:24;;;;;;;28.98;7.15;;;6.40;99.90;;;;;;4991898;28;20042;-87
2022/01/30 08:30:53;;;;;;;30.38;6.97;;;6.40;99.90;;;;;;4983371;28;20049;-89
2022/01/30 08:33:19;;;;;;;30.42;6.28;;;6.40;99.90;;;;;;4967167;28;20097;-86
2022/01/30 08:35:45;;;;;;;35.22;7.78;;;6.40;99.90;;;;;;4982827;28;20459;-87
2022/01/30 08:38:13;;;;;;;27.80;6.57;;;6.40;99.90;;;;;;4989820;28;20035;-92
2022/01/30 08:40:39;;;;;;;26.58;6.25;;;6.40;99.90;;;;;;4967095;28;20046;-89
2022/01/30 08:43:04;;;;;;;33.25;8.48;;;6.50;99.90;;;;;;4968697;28;20452;-93
2022/01/30 08:45:30;;;;;;;31.83;6.95;;;6.50;99.90;;;;;;4988160;28;20495;-85
2022/01/30 08:47:56;;;;;;;36.42;7.10;;;6.60;99.90;;;;;;4984359;28;20046;-87
2022/01/30 08:50:22;;;;;;;29.80;5.43;;;6.70;99.90;;;;;;4989482;28;20446;-89
2022/01/30 08:52:49;;;;;;;24.75;5.88;;;6.60;99.90;;;;;;4990438;28;20042;-88
2022/01/30 08:55:15;;;;;;;24.25;7.10;;;6.60;99.90;;;;;;4983219;28;20045;-88
2022/01/30 08:57:41;;;;;;;26.77;7.32;;;6.60;99.90;;;;;;4989030;28;20042;-91
2022/01/30 09:00:13;;;;;;;28.83;6.03;;;6.60;99.90;;;;;;4991603;28;20046;-89
2022/01/30 09:02:39;;;;;;;32.10;7.18;;;6.60;99.90;;;;;;4973001;28;20042;-89
2022/01/30 09:05:10;;;;;;;25.60;6.45;;;6.50;99.90;;;;;;4975496;28;20073;-91
2022/01/30 09:07:36;;;;;;;26.50;6.88;;;6.40;99.90;;;;;;4991520;28;20460;-89
2022/01/30 09:10:05;;;;;;;25.63;6.00;;;6.40;99.90;;;;;;4991713;28;20125;-93
2022/01/30 09:12:31;;;;;;;28.08;6.40;;;6.40;99.90;;;;;;4978578;28;20063;-88
2022/01/30 09:14:56;;;;;;;29.58;6.63;;;6.40;99.90;;;;;;4998937;28;20483;-91
2022/01/30 09:17:24;;;;;;;29.40;6.40;;;6.60;99.90;;;;;;4982979;28;20039;-93
2022/01/30 09:19:49;;;;;;;28.45;6.05;;;6.60;99.90;;;;;;4986216;28;20045;-91
2022/01/30 09:22:17;;;;;;;28.55;6.60;;;6.70;99.90;;;;;;4985719;28;20062;-89
2022/01/30 09:24:43;;;;;;;31.50;6.32;;;6.80;99.90;;;;;;5001554;28;20073;-89
2022/01/30 09:27:09;;;;;;;29.23;7.88;;;6.70;99.90;;;;;;5002347;28;20076;-88
2022/01/30 09:29:37;;;;;;;31.08;7.15;;;6.70;99.90;;;;;;5003891;28;20532;-91
2022/01/30 09:32:04;;;;;;;32.92;7.20;;;6.70;99.90;;;;;;5005059;28;20411;-91
2022/01/30 09:34:30;;;;;;;28.40;6.30;;;6.60;99.90;;;;;;5005362;28;20042;-92
2022/01/30 09:36:56;;;;;;;29.70;6.43;;;6.60;99.90;;;;;;4988602;28;20402;-91
2022/01/30 09:39:23;;;;;;;38.20;8.15;;;6.50;99.90;;;;;;4987190;28;20438;-89
2022/01/30 09:41:50;;;;;;;30.73;7.25;;;6.60;99.90;;;;;;5005387;28;20164;-89
2022/01/30 09:44:17;;;;;;;33.70;7.43;;;6.70;99.90;;;;;;5005218;28;20038;-88
2022/01/30 09:46:44;;;;;;;31.10;7.72;;;6.80;99.90;;;;;;5002833;28;20049;-90
2022/01/30 09:49:10;;;;;;;29.02;8.48;;;6.80;99.90;;;;;;5004536;28;20091;-88
2022/01/30 09:51:40;;;;;;;28.33;7.63;;;6.80;99.90;;;;;;4987193;28;20042;-87
2022/01/30 09:54:08;;;;;;;31.10;8.45;;;6.80;99.90;;;;;;4987787;28;20034;-92
2022/01/30 09:56:33;;;;;;;29.98;6.75;;;6.90;99.90;;;;;;5003309;28;20054;-90
2022/01/30 09:59:01;;;;;;;25.60;6.03;;;6.90;99.90;;;;;;4988991;28;20379;-86
2022/01/30 10:01:32;;;;;;;30.95;7.72;;;7.00;99.90;;;;;;4986516;28;20061;-91
2022/01/30 10:03:58;;;;;;;33.03;6.57;;;7.10;99.90;;;;;;4987216;28;20033;-93
2022/01/30 10:06:29;;;;;;;30.00;7.50;;;7.20;99.90;;;;;;5004137;28;20053;-95
2022/01/30 10:08:57;;;;;;;32.90;6.70;;;7.20;99.90;;;;;;5006334;28;20493;-89
2022/01/30 10:14:04;;;;;;;;;;;7.10;99.90;;;;;;4997850;28;20046;-90
2022/01/30 10:16:40;;;;;;;31.17;8.13;;;7.00;99.90;;;;;;4987254;28;20278;-91
2022/01/30 10:19:08;;;;;;;27.52;6.93;;;7.00;99.90;;;;;;4986098;28;20450;-90
2022/01/30 10:21:34;;;;;;;27.85;6.53;;;7.00;99.90;;;;;;4992147;28;20065;-93
2022/01/30 10:24:00;;;;;;;26.85;7.32;;;7.10;99.90;;;;;;5003313;28;20055;-95
2022/01/30 10:26:32;;;;;;;33.72;7.53;;;7.10;99.90;;;;;;5004160;28;20475;-90
2022/01/30 10:29:21;;;;;;;24.45;6.43;;;7.20;99.90;;;;;;4984614;28;20105;-90
2022/01/30 10:32:08;;;;;;;27.90;6.68;;;7.20;99.90;;;;;;5004701;28;20041;-90
2022/01/30 10:34:36;;;;;;;27.33;5.97;;;7.20;99.90;;;;;;5003395;28;20054;-91
2022/01/30 10:37:28;;;;;;;28.23;6.15;;;7.30;99.90;;;;;;5007609;28;20042;-90
2022/01/30 10:40:10;;;;;;;26.55;6.28;;;7.30;99.90;;;;;;4983865;28;20070;-90
2022/01/30 10:42:40;;;;;;;27.75;5.57;;;7.30;99.00;;;;;;5004777;28;20042;-91
2022/01/30 10:45:25;;;;;;;25.55;7.13;;;7.30;99.90;;;;;;5009661;28;20131;-90
2022/01/30 10:48:17;;;;;;;25.13;5.95;;;7.30;99.90;;;;;;5010076;28;20132;-93
2022/01/30 10:50:46;;;;;;;36.95;8.65;;;7.40;99.90;;;;;;5021773;28;20046;-91
2022/01/30 10:53:24;;;;;;;28.10;7.05;;;7.40;99.90;;;;;;5024435;28;20149;-95
2022/01/30 10:55:50;;;;;;;27.73;6.63;;;7.60;99.90;;;;;;5011123;28;20045;-91
2022/01/30 10:58:18;;;;;;;30.77;6.47;;;7.70;99.90;;;;;;5011077;28;20038;-91
2022/01/30 11:00:45;;;;;;;31.23;7.78;;;7.90;99.90;;;;;;5010714;28;20060;-92
2022/01/30 11:03:31;;;;;;;28.55;7.38;;;7.90;99.90;;;;;;5006851;28;20049;-93
2022/01/30 11:05:59;;;;;;;30.58;7.57;;;8.00;99.90;;;;;;5008490;28;20469;-93
2022/01/30 11:08:26;;;;;;;30.88;8.15;;;8.00;99.90;;;;;;5011190;28;20050;-91
2022/01/30 11:11:23;;;;;;;34.67;8.07;;;8.00;99.90;;;;;;5005169;28;20042;-90
2022/01/30 11:14:14;;;;;;;25.52;7.18;;;8.00;99.90;;;;;;5007517;28;20438;-92
2022/01/30 11:19:22;;;;;;;32.05;12.02;;;7.90;99.90;;;;;;5009979;28;20050;-92
2022/01/30 11:21:52;;;;;;;26.88;7.63;;;7.80;99.90;;;;;;5005538;28;20093;-94
2022/01/30 11:24:19;;;;;;;26.20;6.55;;;7.70;99.90;;;;;;5010137;28;20352;-92
2022/01/30 11:26:46;;;;;;;31.23;7.50;;;7.70;99.90;;;;;;5005183;28;20095;-91
2022/01/30 11:29:14;;;;;;;28.75;8.63;;;7.60;99.90;;;;;;5011659;28;20141;-89
2022/01/30 11:31:41;;;;;;;30.42;7.38;;;7.60;99.90;;;;;;5003397;28;20108;-95
2022/01/30 11:34:07;;;;;;;29.17;7.15;;;7.60;99.90;;;;;;5008766;28;20042;-91
2022/01/30 11:36:36;;;;;;;22.30;6.22;;;7.50;99.90;;;;;;5005332;28;20050;-91
2022/01/30 11:39:03;;;;;;;26.08;6.07;;;7.50;99.90;;;;;;5005803;28;20188;-93
2022/01/30 11:41:34;;;;;;;29.35;7.13;;;7.50;99.80;;;;;;4986673;28;20041;-94
2022/01/30 11:44:18;;;;;;;24.58;5.68;;;7.50;99.90;;;;;;5023317;28;20053;-90
2022/01/30 11:47:04;;;;;;;25.95;7.43;;;7.50;99.90;;;;;;5007717;28;20053;-93
2022/01/30 11:49:57;;;;;;;24.77;6.20;;;7.60;96.10;;;;;;4990570;28;20050;-91
2022/01/30 11:52:48;;;;;;;27.40;6.30;;;7.60;95.70;;;;;;5007894;28;20084;-92
2022/01/30 11:55:39;;;;;;;26.95;6.57;;;7.70;95.40;;;;;;4991151;28;20450;-90
2022/01/30 11:58:04;;;;;;;26.70;5.72;;;7.70;91.20;;;;;;5008284;28;20046;-95
2022/01/30 12:00:49;;;;;;;29.45;6.22;;;7.70;91.40;;;;;;5007411;28;20176;-91
2022/01/30 12:03:28;;;;;;;28.27;7.05;;;7.70;92.00;;;;;;4992155;28;20042;-94
2022/01/30 12:05:56;;;;;;;28.25;6.50;;;7.60;94.20;;;;;;5004392;28;20077;-91
2022/01/30 12:08:48;;;;;;;26.50;6.57;;;7.40;90.60;;;;;;4987750;28;20042;-89
2022/01/30 12:11:43;;;;;;;24.42;5.05;;;7.40;91.90;;;;;;5006807;28;20125;-91
2022/01/30 12:14:21;;;;;;;22.20;5.35;;;7.40;92.60;;;;;;5004911;28;20038;-93
2022/01/30 12:16:56;;;;;;;26.77;5.53;;;7.40;93.40;;;;;;5002453;28;20084;-94
2022/01/30 12:19:30;;;;;;;28.98;7.10;;;7.40;94.40;;;;;;5006591;28;20042;-90
2022/01/30 12:21:57;;;;;;;28.70;6.38;;;7.50;91.00;;;;;;5002389;28;20113;-93
2022/01/30 12:24:27;;;;;;;28.00;6.72;;;7.50;95.10;;;;;;5003191;28;20132;-88
2022/01/30 12:27:00;;;;;;;23.27;6.03;;;7.50;93.10;;;;;;5002132;28;20041;-91
2022/01/30 12:29:52;;;;;;;23.60;6.07;;;7.60;91.50;;;;;;5003718;28;20045;-90
2022/01/30 12:32:24;;;;;;;24.38;6.38;;;7.60;84.30;;;;;;5006827;28;20883;-91
2022/01/30 12:34:52;;;;;;;22.75;5.65;;;7.70;94.00;;;;;;5006338;28;20045;-90
2022/01/30 12:37:25;;;;;;;27.13;6.07;;;7.90;94.70;;;;;;5002697;28;20609;-90
2022/01/30 12:39:52;;;;;;;27.13;6.25;;;8.00;88.70;;;;;;4989874;28;20048;-90
2022/01/30 12:42:19;;;;;;;24.17;6.65;;;8.10;92.80;;;;;;4991937;28;20245;-93
2022/01/30 12:44:46;;;;;;;26.50;5.55;;;8.00;88.90;;;;;;5011338;28;20077;-95
2022/01/30 12:47:13;;;;;;;20.80;5.55;;;8.00;92.00;;;;;;5016969;28;20042;-92
2022/01/30 12:49:50;;;;;;;27.38;7.50;;;8.00;90.70;;;;;;5007901;28;20042;-87
2022/01/30 12:54:55;;;;;;;23.77;5.90;;;8.00;84.60;;;;;;5008350;28;20056;-93
2022/01/30 12:57:21;;;;;;;25.77;5.30;;;8.00;90.40;;;;;;5012181;28;20479;-94
2022/01/30 13:00:01;;;;;;;25.50;6.55;;;8.00;90.10;;;;;;5012524;28;20125;-91
2022/01/30 13:02:33;;;;;;;24.38;6.10;;;8.00;83.90;;;;;;5010599;28;20041;-91
2022/01/30 13:05:00;;;;;;;30.33;6.68;;;7.90;90.40;;;;;;5012029;28;20076;-95
2022/01/30 13:07:25;;;;;;;26.42;5.97;;;7.80;91.80;;;;;;5009919;28;20057;-94
2022/01/30 13:10:03;;;;;;;22.65;5.38;;;7.80;93.40;;;;;;5007283;28;21575;-94
2022/01/30 13:12:31;;;;;;;23.63;6.15;;;7.70;94.20;;;;;;5010381;28;20695;-94
2022/01/30 13:14:57;;;;;;;22.95;5.90;;;7.70;95.00;;;;;;4993572;28;20053;-95
2022/01/30 13:17:30;;;;;;;27.65;7.18;;;7.80;95.80;;;;;;5010529;28;20902;-91
2022/01/30 13:19:56;;;;;;;23.52;6.03;;;7.80;95.10;;;;;;5011677;28;20061;-91
2022/01/30 13:22:37;;;;;;;23.40;5.88;;;7.80;95.80;;;;;;4995183;28;20042;-94
2022/01/30 13:25:06;;;;;;;24.77;7.25;;;7.90;96.20;;;;;;5027177;28;20532;-94
2022/01/30 13:27:32;;;;;;;27.15;7.10;;;7.90;95.20;;;;;;4991803;28;20042;-92
2022/01/30 13:29:57;;;;;;;26.50;6.28;;;8.00;95.90;;;;;;4993230;28;20049;-90
2022/01/30 13:32:25;;;;;;;27.08;6.57;;;7.90;95.90;;;;;;5008005;28;20077;-90
2022/01/30 13:34:53;;;;;;;25.13;5.88;;;7.90;94.50;;;;;;5005691;28;20372;-90
2022/01/30 13:37:20;;;;;;;23.83;5.80;;;7.90;94.50;;;;;;5009574;28;20104;-93
2022/01/30 13:40:03;;;;;;;34.08;6.72;;;7.80;91.70;;;;;;5007729;28;20096;-92
2022/01/30 13:42:42;;;;;;;25.23;6.28;;;7.70;89.80;;;;;;5007450;28;20100;-92
2022/01/30 13:48:15;;;;;;;24.98;6.28;;;7.40;91.50;;;;;;5003763;28;20124;-91
2022/01/30 13:50:52;;;;;;;22.13;5.45;;;7.30;90.50;;;;;;5002490;28;20136;-91
2022/01/30 13:53:20;;;;;;;23.30;4.47;;;7.20;84.70;;;;;;5005075;28;20057;-91
2022/01/30 13:56:07;;;;;;;20.80;4.78;;;7.10;90.20;;;;;;5004413;28;20034;-91
2022/01/30 13:58:43;;;;;;;24.13;4.78;;;7.00;84.30;;;;;;5022280;28;20093;-94
2022/01/30 14:01:15;;;;;;;21.00;5.35;;;7.00;89.40;;;;;;5009823;28;20514;-93
2022/01/30 14:03:43;;;;;;;23.02;4.82;;;7.00;89.40;;;;;;5010288;28;20439;-90
2022/01/30 14:06:23;;;;;;;24.05;6.47;;;7.00;89.50;;;;;;5009604;28;20084;-93
2022/01/30 14:08:56;;;;;;;24.98;5.30;;;7.00;90.80;;;;;;5026675;28;20049;-92